Terminal Aerodrome Forecast
Issued by NWS

Current Version | Previous Version | Graphics & Text | Print | Product List | Glossary On
Versions: 1 2 3 4 5 6 7 8 9 10 11 12 13 14 15 16 17 18 19 20
696
FTUS41 KPBZ 211138
TAFHLG
TAF
KHLG 211138Z 2112/2212 00000KT 1 1/2SM BR SCT003
      TEMPO 2112/2113 1/4SM FG VV001
     FM211300 VRB03KT P6SM SCT040
     FM220900 VRB03KT 4SM BR SKC=

USA.gov is the U.S. government's official web portal to all federal, state and local government web resources and services.